Briefing drone pour Saint-just-malmont

Rechercher une autre localisation

Conditions de vol :


Nous sommes le : Vendredi 07 mai 2021
Il est 02:11 UTC (04:11 LT)

Lever de soleil : 03:55 UTC (05:55 LT)
Coucher de soleil : 19:22 UTC (21:22 LT)

Météo

L'essentiel des conditions de vol

VIGILANCE MÉTÉO FRANCE - Haute-Loire (43)
Pas de vigilances particulieres
CARTE TEMSI
CARTES DES FRONTS
METAR de LFMH
LFMH 070200Z AUTO VRB01KT CAVOK 10/07 Q1014 TEMPO SHRA SCT020TCU BKN025

Date d'émission: 07/05/2021
Heure d'émission: 02:00 UTC
Vent: Variable 1 KT (2 km/h)
Visibilité horizontale: > 10 km
Plafond : Plafond et visibilité OK (CAVOK)
Température: 10 °C
Point de rosée: 7 °C
Humidité: 82%
Pression (QNH): 1014 hPa

Temporairement:

Plafond :
- Nuages épars à 2000ft (610m)
- Nuages morcelés à 2500ft (762m)
Conditions : Averses de pluie
TAF de LFMH
LFMH 061904Z 0619/0712 CNL

Conditions prévues :

Heure d'émission : Bulletin éffectué le 06 à 19:00 UTC
Prévision : Valide du 06 a 19:00 UTC au 07 a 12:00 UTC
Nuages : à 0ft (0 m)
WEBCAM POUR SAINT-JUST-MALMONT

Réglementation

Voler en sécurité

CARTES AERONAUTIQUE 1/500.000
CARTES VAC (LFMH)
SUP AIP




Chargement des AIP...
NOTAM (SAINT-JUST-MALMONT + Terrain à proximité / FIR )




Chargement des NOTAMS...
CONTACT PREFECTURE 43


Avertissement : Les données mises à disposition sont indicatives. Oxygène Drone ne pourra être tenu responsable de dégâts causés aux biens et aux personnes.